Aviation Digital Data Service (ADDS)

Output produced by TAFs form (0906 UTC 30 May 2017)
found at http://www.aviationweather.gov/adds/tafs/
 
METAR text: ZBAA 300900Z 15003MPS 120V180 CAVOK 27/15 Q1004 NOSIG
Conditions at: ZBAA (BEIJING/PEKING , CN) observed 0900 UTC 30 May 2017
Temperature: 27.0°C (81°F)
Dewpoint: 15.0°C (59°F) [RH = 48%]
Pressure (altimeter): 29.65 inches Hg (1004.0 mb)
Winds: from the SSE (150 degrees) at 7 MPH (6 knots; 3.1 m/s)
Visibility: 6 or more miles (10+ km)
Ceiling: ceiling and visibility are OK
Clouds: unknown
Weather: no significant weather observed at this time

Forecast for: ZBAA (BEIJING/PEKING , CN)
Text: TAF ZBAA 300320Z 3006/3106 18004MPS CAVOK TX25/3007Z TN18/3021Z
Forecast period: 0600 UTC 30 May 2017 to 0600 UTC 31 May 2017
Forecast type: FROM: standard forecast or significant change
Winds: from the S (180 degrees) at 9 MPH (8 knots; 4.2 m/s)
Visibility: 6 or more miles (10+ km)
Clouds: not forecast
Weather: no significant weather forecast for this period